Ashland, Illinois
Current Conditions -  °F | °C
As of 3:55 PM on Wednesday 28 Jan 2015 (Local Time) from KIJX Reporting Station
Clear Clear  
Wind Chill: 37°   Ceiling: Unl
Heat Index: 44°   Visibility: 10mi
Dew Point: 33°   Wind: 15mph
Humidity: 65%   Direction: 150°SSE
Pressure: 29.96"   Gusts: 25mph
Location:  39.89°N, 90.01°W
Report Text: KIJX 282155Z AUTO 15013G22KT 10SM CLR 07/00 A2996 RMK AO2 T00650003
Loading
Personal Weather Stations






























Interactive Weather Map New forecast layout! Learn more

10-Day Weather Forecast

Advertisements
Track Severe Weather on mobile